Time;durP1;ratioP1;P1;durP2;ratioP2;P2;SDS_P1;SDS_P2;PMS_P1;PMS_P2;Temp;Humidity;BMP_temperature;BMP_pressure;BME280_temperature;BME280_humidity;BME280_pressure;Samples;Min_cycle;Max_cycle;Signal;HPM_P1;HPM_P2
2023/09/05 00:01:53;;;;;;;3.92;3.55;;;19.20;1.00;;;;;;4989447;28;20667;-83
2023/09/05 00:04:20;;;;;;;6.05;3.60;;;19.20;1.00;;;;;;5011070;28;20270;-83
2023/09/05 00:06:48;;;;;;;4.90;3.65;;;19.10;99.90;;;;;;4991717;28;20679;-83
2023/09/05 00:09:18;;;;;;;4.43;3.40;;;19.10;99.90;;;;;;4988172;28;20240;-83
2023/09/05 00:11:47;;;;;;;3.58;3.28;;;19.20;1.00;;;;;;4994990;28;20200;-83
2023/09/05 00:14:18;;;;;;;4.90;3.65;;;19.30;99.90;;;;;;4996523;28;20208;-83
2023/09/05 00:16:45;;;;;;;4.97;3.40;;;19.30;99.90;;;;;;5010673;28;20219;-83
2023/09/05 00:19:13;;;;;;;4.90;3.35;;;19.20;99.90;;;;;;4990656;28;20213;-83
2023/09/05 00:21:41;;;;;;;4.38;3.53;;;19.10;99.90;;;;;;4990137;28;20209;-83
2023/09/05 00:24:24;;;;;;;3.88;3.50;;;19.10;1.00;;;;;;4996928;28;20702;-83
2023/09/05 00:26:53;;;;;;;3.65;3.15;;;18.90;1.00;;;;;;5005220;28;20243;-83
2023/09/05 00:29:21;;;;;;;4.18;3.22;;;18.70;21.70;;;;;;5015748;28;20578;-83
2023/09/05 00:31:49;;;;;;;4.55;3.75;;;18.70;1.00;;;;;;4992854;28;20200;-83
2023/09/05 00:34:16;;;;;;;3.78;3.45;;;18.70;1.00;;;;;;4999350;28;20208;-83
2023/09/05 00:36:47;;;;;;;3.88;3.45;;;18.70;1.00;;;;;;5000403;28;20220;-83
2023/09/05 00:39:16;;;;;;;3.85;3.33;;;18.60;1.00;;;;;;4983163;28;20205;-83
2023/09/05 00:41:44;;;;;;;4.03;3.30;;;18.60;99.90;;;;;;5007003;28;20205;-83
2023/09/05 00:44:14;;;;;;;4.85;3.60;;;18.50;1.00;;;;;;5013821;28;20209;-83
2023/09/05 00:46:43;;;;;;;3.60;3.30;;;18.50;1.00;;;;;;4979795;28;20221;-83
2023/09/05 00:49:12;;;;;;;4.07;3.67;;;18.40;37.50;;;;;;4987113;28;20539;-83
2023/09/05 00:51:42;;;;;;;4.65;3.63;;;18.30;99.90;;;;;;4988677;28;20231;-84
2023/09/05 00:54:12;;;;;;;4.35;3.60;;;18.60;2.60;;;;;;5016153;28;20219;-83
2023/09/05 00:56:39;;;;;;;3.47;2.88;;;18.80;99.90;;;;;;4982552;28;20227;-83
2023/09/05 00:59:07;;;;;;;4.65;3.60;;;19.00;99.90;;;;;;4989847;28;20201;-83
2023/09/05 01:01:35;;;;;;;5.20;3.40;;;19.10;1.00;;;;;;4987695;28;20200;-83
2023/09/05 01:04:03;;;;;;;3.85;3.40;;;18.80;1.00;;;;;;5013633;23;20229;-77
2023/09/05 01:06:37;;;;;;;4.85;3.92;;;18.60;1.00;;;;;;4969115;28;20864;-77
2023/09/05 01:09:17;;;;;;;6.03;3.10;;;18.50;1.00;;;;;;4976652;28;20204;-77
2023/09/05 01:11:45;;;;;;;4.43;3.90;;;18.50;99.90;;;;;;4978435;28;20221;-77
2023/09/05 01:14:13;;;;;;;4.97;3.40;;;18.50;1.00;;;;;;4966391;28;20241;-77
2023/09/05 01:16:45;;;;;;;4.35;3.60;;;18.80;99.90;;;;;;4971606;28;20209;-77
2023/09/05 01:19:15;;;;;;;4.95;3.58;;;18.80;99.90;;;;;;4972773;28;20225;-78
2023/09/05 01:21:54;;;;;;;3.85;3.47;;;18.60;1.00;;;;;;4951888;29;20198;-78
2023/09/05 01:24:23;;;;;;;4.22;3.00;;;18.50;1.00;;;;;;4957605;28;20229;-77
2023/09/05 01:26:53;;;;;;;3.47;3.17;;;18.40;1.00;;;;;;4952789;28;20206;-77
2023/09/05 01:29:25;;;;;;;6.18;3.38;;;18.30;99.90;;;;;;4952246;28;20205;-77
2023/09/05 01:31:53;;;;;;;3.45;3.17;;;18.30;1.00;;;;;;4958763;29;20217;-77
2023/09/05 01:34:21;;;;;;;3.75;3.30;;;18.20;23.60;;;;;;4972489;28;20222;-77
2023/09/05 01:36:48;;;;;;;4.95;3.85;;;18.30;1.00;;;;;;4968851;28;20205;-77
2023/09/05 01:39:16;;;;;;;5.07;3.58;;;18.30;3.70;;;;;;4950235;28;20195;-77
2023/09/05 01:41:45;;;;;;;4.88;3.42;;;18.30;1.00;;;;;;4975166;28;20206;-77
2023/09/05 01:44:15;;;;;;;5.00;3.63;;;18.50;1.00;;;;;;4955992;28;20222;-77
2023/09/05 01:46:42;;;;;;;5.07;3.75;;;18.50;99.90;;;;;;4955247;28;20194;-77
2023/09/05 01:49:10;;;;;;;5.43;3.90;;;18.40;99.90;;;;;;4969998;28;20209;-77
2023/09/05 01:51:38;;;;;;;5.25;3.50;;;18.50;99.90;;;;;;4958622;28;20298;-77
2023/09/05 01:54:06;;;;;;;8.93;3.80;;;18.30;99.90;;;;;;4957846;28;20229;-77
2023/09/05 01:56:33;;;;;;;3.78;3.35;;;18.20;1.00;;;;;;4973157;28;20800;-80
2023/09/05 01:59:02;;;;;;;5.65;3.47;;;18.10;17.60;;;;;;4959024;28;20209;-80
2023/09/05 02:01:30;;;;;;;7.85;3.47;;;18.20;99.90;;;;;;4958956;28;20206;-80
2023/09/05 02:03:57;;;;;;;3.90;3.40;;;18.20;99.90;;;;;;4973934;28;20577;-80
2023/09/05 02:06:24;;;;;;;6.78;3.53;;;18.10;1.00;;;;;;4956524;28;20202;-80
2023/09/05 02:08:52;;;;;;;5.15;3.35;;;18.00;1.00;;;;;;4974814;28;20571;-80
2023/09/05 02:11:19;;;;;;;4.28;3.80;;;17.90;1.00;;;;;;4974806;28;20232;-80
2023/09/05 02:13:47;;;;;;;7.18;3.38;;;17.90;67.30;;;;;;4960271;28;20217;-80
2023/09/05 02:16:18;;;;;;;3.40;2.83;;;17.90;1.00;;;;;;4944047;28;20206;-80
2023/09/05 02:18:47;;;;;;;3.50;3.17;;;18.00;1.00;;;;;;4967039;28;20194;-80
2023/09/05 02:21:15;;;;;;;4.20;3.55;;;18.20;1.00;;;;;;4967366;28;20201;-80
2023/09/05 02:23:43;;;;;;;4.18;3.28;;;18.20;1.00;;;;;;4955418;28;20222;-80
2023/09/05 02:26:12;;;;;;;5.60;3.40;;;18.20;1.00;;;;;;4957276;28;20213;-80
2023/09/05 02:28:42;;;;;;;3.85;3.08;;;18.00;1.00;;;;;;4965649;28;20202;-80
2023/09/05 02:31:09;;;;;;;4.03;3.60;;;18.00;17.00;;;;;;4958529;29;20218;-80
2023/09/05 02:33:38;;;;;;;4.97;3.15;;;17.90;1.00;;;;;;4972050;28;20214;-80
2023/09/05 02:36:10;;;;;;;4.40;3.83;;;18.00;99.90;;;;;;4961548;28;20675;-80
2023/09/05 02:38:38;;;;;;;3.72;3.10;;;17.90;1.00;;;;;;4971098;28;20202;-80
2023/09/05 02:41:05;;;;;;;5.45;3.45;;;18.20;99.90;;;;;;4945817;29;20202;-80
2023/09/05 02:43:34;;;;;;;6.10;3.63;;;18.30;99.90;;;;;;4965673;28;20281;-80
2023/09/05 02:46:02;;;;;;;4.05;3.47;;;18.30;1.00;;;;;;4952123;28;20213;-80
2023/09/05 02:48:29;;;;;;;4.45;4.05;;;18.30;99.90;;;;;;4969875;28;20205;-80
2023/09/05 02:51:04;;;;;;;4.78;3.78;;;18.20;71.10;;;;;;4947316;29;20214;-80
2023/09/05 02:53:31;;;;;;;3.88;3.38;;;17.90;1.00;;;;;;4965453;28;20226;-80
2023/09/05 02:55:59;;;;;;;4.85;3.80;;;18.00;1.00;;;;;;4955142;28;20205;-80
2023/09/05 02:58:27;;;;;;;7.10;3.97;;;17.80;99.90;;;;;;4958479;28;20208;-80
2023/09/05 03:01:00;;;;;;;3.90;3.50;;;17.80;99.90;;;;;;4969652;28;20206;-80
2023/09/05 03:03:28;;;;;;;5.60;4.38;;;18.00;1.00;;;;;;4961582;28;20209;-80
2023/09/05 03:05:55;;;;;;;6.00;4.10;;;17.80;99.90;;;;;;4975905;28;20213;-80
2023/09/05 03:08:24;;;;;;;5.28;3.80;;;17.80;99.90;;;;;;4975545;28;20206;-80
2023/09/05 03:10:53;;;;;;;5.50;4.00;;;17.80;1.00;;;;;;4943938;29;20218;-80
2023/09/05 03:13:22;;;;;;;4.72;4.22;;;17.70;99.90;;;;;;4973341;28;20210;-80
2023/09/05 03:15:52;;;;;;;4.95;4.10;;;17.80;99.90;;;;;;4958078;28;20198;-80
2023/09/05 03:18:21;;;;;;;6.07;3.83;;;17.80;90.90;;;;;;4954916;29;20194;-80
2023/09/05 03:20:48;;;;;;;5.07;4.60;;;17.70;99.90;;;;;;4967163;28;20198;-80
2023/09/05 03:23:16;;;;;;;4.50;4.10;;;17.70;1.00;;;;;;4957419;28;20197;-80
2023/09/05 03:25:45;;;;;;;6.47;4.32;;;17.80;1.00;;;;;;4969547;28;20194;-80
2023/09/05 03:28:14;;;;;;;5.93;4.40;;;17.80;1.00;;;;;;4957814;28;20198;-80
2023/09/05 03:30:44;;;;;;;6.68;5.00;;;17.70;1.00;;;;;;4950544;29;20575;-80
2023/09/05 03:33:12;;;;;;;4.70;4.22;;;17.60;1.00;;;;;;4973484;28;20206;-80
2023/09/05 03:35:40;;;;;;;5.32;4.18;;;17.60;99.90;;;;;;4956394;28;20209;-80
2023/09/05 03:38:08;;;;;;;7.00;4.00;;;17.60;1.00;;;;;;4957346;28;20204;-80
2023/09/05 03:40:35;;;;;;;4.82;4.18;;;17.70;99.90;;;;;;4940617;29;20213;-80
2023/09/05 03:43:04;;;;;;;4.80;4.32;;;17.50;1.00;;;;;;4968409;28;20202;-80
2023/09/05 03:45:32;;;;;;;5.72;4.35;;;17.60;99.90;;;;;;4954365;28;20225;-80
2023/09/05 03:48:00;;;;;;;4.88;4.43;;;17.50;99.90;;;;;;4963977;28;20202;-80
2023/09/05 03:50:27;;;;;;;6.72;4.28;;;17.40;1.00;;;;;;4957299;29;20202;-80
2023/09/05 03:52:54;;;;;;;5.90;4.32;;;17.60;1.00;;;;;;4974240;28;20228;-80
2023/09/05 03:55:22;;;;;;;6.32;4.88;;;17.50;99.90;;;;;;4971659;28;20222;-80
2023/09/05 03:57:49;;;;;;;4.88;4.25;;;17.20;99.90;;;;;;4958056;29;20201;-80
2023/09/05 04:00:18;;;;;;;5.82;4.32;;;17.40;1.00;;;;;;4974034;28;20202;-80
2023/09/05 04:02:47;;;;;;;4.55;4.10;;;17.50;83.00;;;;;;4966043;28;20186;-80
2023/09/05 04:05:16;;;;;;;5.28;4.20;;;17.50;1.00;;;;;;4972336;28;20229;-80
2023/09/05 04:07:43;;;;;;;5.40;4.57;;;17.30;1.00;;;;;;4972181;28;20220;-80
2023/09/05 04:10:12;;;;;;;4.85;4.43;;;17.30;1.00;;;;;;4973960;28;20216;-80
2023/09/05 04:12:39;;;;;;;6.10;4.45;;;17.40;97.20;;;;;;4955734;28;20229;-80
2023/09/05 04:15:07;;;;;;;5.53;4.95;;;17.40;50.40;;;;;;4962292;28;20226;-80
2023/09/05 04:17:37;;;;;;;6.15;5.55;;;17.30;10.80;;;;;;4963379;28;20206;-80
2023/09/05 04:20:07;;;;;;;7.85;5.18;;;17.30;1.00;;;;;;4966863;28;20207;-80
2023/09/05 04:22:34;;;;;;;7.65;4.82;;;17.20;1.00;;;;;;4962830;28;20198;-80
2023/09/05 04:25:02;;;;;;;5.28;4.43;;;17.20;99.90;;;;;;4968682;28;20230;-80
2023/09/05 04:27:29;;;;;;;6.55;4.75;;;17.40;1.00;;;;;;4974676;28;20204;-80
2023/09/05 04:29:57;;;;;;;4.60;4.15;;;17.60;1.00;;;;;;4965603;28;20198;-80
2023/09/05 04:32:28;;;;;;;5.10;4.60;;;17.60;1.00;;;;;;4965137;28;20246;-80
2023/09/05 04:34:58;;;;;;;4.95;4.43;;;17.70;1.00;;;;;;4968538;28;20224;-80
2023/09/05 04:37:26;;;;;;;5.20;4.70;;;17.60;99.90;;;;;;4951605;28;20201;-80
2023/09/05 04:39:57;;;;;;;5.50;4.40;;;17.50;1.00;;;;;;4969067;28;20202;-80
2023/09/05 04:42:26;;;;;;;6.70;4.35;;;17.40;1.00;;;;;;4951825;29;20198;-80
2023/09/05 04:44:54;;;;;;;5.47;4.45;;;17.50;99.90;;;;;;4951416;28;20237;-80
2023/09/05 04:47:23;;;;;;;5.55;4.88;;;17.50;99.90;;;;;;4973126;28;20226;-80
2023/09/05 04:49:51;;;;;;;4.88;4.22;;;17.50;1.00;;;;;;4958181;29;20217;-80
2023/09/05 04:52:21;;;;;;;8.00;5.05;;;17.20;99.90;;;;;;4963377;28;20214;-80
2023/09/05 04:54:49;;;;;;;6.70;5.00;;;17.20;1.00;;;;;;4972837;28;20230;-80
2023/09/05 04:57:17;;;;;;;5.95;5.10;;;17.20;1.00;;;;;;4960401;28;20208;-80
2023/09/05 04:59:47;;;;;;;5.53;4.18;;;17.10;1.00;;;;;;4950236;29;20203;-80
2023/09/05 05:02:14;;;;;;;5.57;4.70;;;17.10;1.00;;;;;;4973436;28;20561;-80
2023/09/05 05:04:42;;;;;;;5.03;4.45;;;17.10;99.90;;;;;;4956993;28;20624;-80
2023/09/05 05:07:09;;;;;;;4.90;4.50;;;17.10;1.00;;;;;;4975287;28;20205;-80
2023/09/05 05:09:39;;;;;;;5.57;4.80;;;17.10;1.00;;;;;;4957630;28;20213;-80
2023/09/05 05:12:07;;;;;;;4.93;4.07;;;17.10;99.90;;;;;;4959016;29;20237;-80
2023/09/05 05:14:35;;;;;;;5.82;4.80;;;17.10;99.90;;;;;;4951709;28;20209;-80
2023/09/05 05:17:02;;;;;;;6.20;4.82;;;17.10;1.00;;;;;;4968855;28;20244;-80
2023/09/05 05:19:30;;;;;;;9.48;4.53;;;17.10;99.90;;;;;;4955847;29;20193;-80
2023/09/05 05:21:57;;;;;;;5.60;4.90;;;17.10;1.00;;;;;;4954509;28;20194;-80
2023/09/05 05:24:25;;;;;;;6.90;4.72;;;17.20;1.00;;;;;;4967618;28;20226;-80
2023/09/05 05:26:54;;;;;;;6.30;5.07;;;17.20;1.00;;;;;;4974316;28;20201;-80
2023/09/05 05:29:21;;;;;;;5.60;4.55;;;17.20;99.90;;;;;;4968903;28;20208;-80
2023/09/05 05:31:49;;;;;;;6.43;4.40;;;17.30;99.90;;;;;;4970587;28;20220;-80
2023/09/05 05:34:17;;;;;;;5.50;5.03;;;17.30;1.00;;;;;;4949869;28;20226;-80
2023/09/05 05:36:44;;;;;;;9.00;4.90;;;17.40;87.40;;;;;;4957002;28;20217;-80
2023/09/05 05:39:12;;;;;;;7.43;4.93;;;17.50;1.00;;;;;;4972561;28;20201;-80
2023/09/05 05:41:40;;;;;;;6.63;4.93;;;17.60;1.00;;;;;;4958321;28;20202;-80
2023/09/05 05:44:09;;;;;;;5.10;4.60;;;17.60;32.70;;;;;;4959727;28;20228;-80
2023/09/05 05:46:43;;;;;;;6.30;4.93;;;17.60;99.90;;;;;;4955715;29;20214;-80
2023/09/05 05:49:11;;;;;;;6.70;5.05;;;17.70;1.00;;;;;;4967902;28;20196;-80
2023/09/05 05:51:41;;;;;;;6.65;4.53;;;17.70;1.00;;;;;;4955870;28;20212;-80
2023/09/05 05:54:09;;;;;;;4.40;4.00;;;17.90;1.00;;;;;;4959838;28;20234;-80
2023/09/05 05:56:37;;;;;;;7.15;4.75;;;18.00;99.90;;;;;;4962196;28;20213;-80
2023/09/05 05:59:05;;;;;;;8.00;4.72;;;18.10;38.90;;;;;;4967900;28;20202;-80
2023/09/05 06:01:34;;;;;;;4.85;3.92;;;18.10;99.90;;;;;;4952138;28;20209;-80
2023/09/05 06:04:01;;;;;;;4.20;3.75;;;18.20;99.90;;;;;;4965477;28;20229;-80
2023/09/05 06:06:29;;;;;;;4.55;4.15;;;18.20;1.00;;;;;;4956752;29;20213;-80
2023/09/05 06:08:56;;;;;;;6.28;4.80;;;18.40;99.90;;;;;;4956681;28;20217;-80
2023/09/05 06:11:24;;;;;;;6.05;4.47;;;18.50;1.00;;;;;;4956775;28;20209;-80
2023/09/05 06:13:52;;;;;;;4.18;3.88;;;18.60;99.90;;;;;;4973224;28;20589;-80
2023/09/05 06:16:20;;;;;;;4.97;4.03;;;18.60;99.90;;;;;;4954041;29;20683;-80
2023/09/05 06:18:49;;;;;;;7.00;4.75;;;18.70;99.90;;;;;;4968582;28;20214;-80
2023/09/05 06:21:16;;;;;;;4.45;3.63;;;18.70;99.90;;;;;;4961770;28;20205;-80
2023/09/05 06:23:44;;;;;;;7.20;4.20;;;18.80;1.00;;;;;;4969539;28;20225;-80
2023/09/05 06:26:11;;;;;;;7.07;3.80;;;18.90;1.00;;;;;;4954617;28;20202;-80
2023/09/05 06:28:39;;;;;;;5.70;3.90;;;19.00;99.90;;;;;;4960100;28;20201;-80
2023/09/05 06:31:07;;;;;;;5.15;4.65;;;19.00;1.00;;;;;;4957903;29;20194;-80
2023/09/05 06:33:35;;;;;;;6.22;5.40;;;19.10;1.00;;;;;;4958346;28;20221;-80
2023/09/05 06:36:07;;;;;;;4.45;3.67;;;19.20;62.30;;;;;;4972077;28;20205;-80
2023/09/05 06:38:35;;;;;;;4.95;3.60;;;19.30;1.00;;;;;;4970406;28;20198;-80
2023/09/05 06:41:06;;;;;;;3.42;3.13;;;19.30;99.90;;;;;;4972863;28;20205;-80
2023/09/05 06:43:34;;;;;;;7.53;4.25;;;19.40;99.90;;;;;;4956421;28;20217;-80
2023/09/05 06:46:02;;;;;;;4.43;3.20;;;19.50;99.90;;;;;;4946378;28;20210;-80
2023/09/05 06:48:30;;;;;;;4.95;3.90;;;19.70;4.10;;;;;;4969408;28;20213;-80
2023/09/05 06:50:58;;;;;;;5.82;3.28;;;19.90;1.00;;;;;;4970901;28;20556;-80
2023/09/05 06:53:28;;;;;;;5.72;3.30;;;20.00;1.00;;;;;;4956828;28;20692;-80
2023/09/05 06:55:55;;;;;;;4.45;3.58;;;20.10;1.00;;;;;;4967094;28;20201;-80
2023/09/05 06:58:24;;;;;;;3.63;3.33;;;20.20;99.90;;;;;;4944544;28;20217;-80
2023/09/05 07:00:54;;;;;;;5.68;3.67;;;20.10;99.90;;;;;;4964894;28;20217;-80
2023/09/05 07:03:22;;;;;;;7.88;4.05;;;20.20;99.90;;;;;;4955838;28;20672;-80
2023/09/05 07:05:50;;;;;;;4.63;3.00;;;20.10;99.90;;;;;;4956154;28;20205;-80
2023/09/05 07:08:17;;;;;;;4.22;3.33;;;20.30;1.00;;;;;;4955673;28;20197;-80
2023/09/05 07:10:48;;;;;;;5.35;3.53;;;20.40;99.90;;;;;;4954307;28;20295;-80
2023/09/05 07:13:16;;;;;;;5.20;3.17;;;20.40;99.90;;;;;;4954280;28;20226;-78
2023/09/05 07:15:44;;;;;;;4.50;3.40;;;20.50;99.90;;;;;;4954141;28;20206;-78
2023/09/05 07:18:12;;;;;;;5.30;2.97;;;20.60;39.50;;;;;;4946153;28;20197;-78
2023/09/05 07:20:39;;;;;;;5.10;3.20;;;20.60;1.00;;;;;;4945831;28;20201;-80
2023/09/05 07:23:07;;;;;;;5.30;3.13;;;20.60;1.00;;;;;;4966135;28;20224;-80
2023/09/05 07:25:38;;;;;;;4.00;3.28;;;20.60;1.00;;;;;;4970290;28;20229;-80
2023/09/05 07:28:07;;;;;;;4.78;2.70;;;20.80;1.00;;;;;;4972104;28;20214;-80
2023/09/05 07:30:35;;;;;;;5.30;3.20;;;20.90;1.00;;;;;;4939286;28;20210;-80
2023/09/05 07:33:03;;;;;;;4.72;3.47;;;20.90;1.00;;;;;;4971995;28;20217;-80
2023/09/05 07:35:31;;;;;;;5.85;3.40;;;20.90;1.00;;;;;;4978211;28;20228;-80
2023/09/05 07:37:59;;;;;;;5.57;3.58;;;21.00;1.00;;;;;;4954658;28;20213;-78
2023/09/05 07:40:26;;;;;;;6.20;3.50;;;21.00;1.00;;;;;;4956016;28;20545;-78
2023/09/05 07:42:55;;;;;;;5.60;3.17;;;21.10;1.00;;;;;;4971514;28;20201;-78
2023/09/05 07:45:25;;;;;;;6.00;3.83;;;21.20;1.00;;;;;;4970252;28;20233;-78
2023/09/05 07:47:53;;;;;;;6.03;4.20;;;21.20;1.00;;;;;;4969592;28;20210;-78
2023/09/05 07:50:20;;;;;;;5.10;3.15;;;21.30;1.00;;;;;;4959882;28;20213;-79
2023/09/05 07:52:48;;;;;;;4.13;3.05;;;21.40;1.00;;;;;;4972672;28;20218;-79
2023/09/05 07:55:15;;;;;;;5.65;4.32;;;21.50;99.90;;;;;;4959981;28;20229;-79
2023/09/05 07:57:44;;;;;;;5.72;3.55;;;21.50;99.90;;;;;;4960691;28;20672;-79
2023/09/05 08:00:15;;;;;;;4.65;2.67;;;21.60;99.90;;;;;;4968573;28;20731;-79
2023/09/05 08:02:44;;;;;;;3.25;2.80;;;21.70;1.00;;;;;;4963683;29;20201;-79
2023/09/05 08:05:12;;;;;;;3.25;2.53;;;21.80;1.00;;;;;;4977270;28;20237;-78
2023/09/05 08:07:40;;;;;;;5.20;2.58;;;21.90;1.00;;;;;;4959234;28;20213;-78
2023/09/05 08:10:10;;;;;;;3.97;2.83;;;22.00;1.00;;;;;;4963462;28;20290;-79
2023/09/05 08:12:38;;;;;;;3.83;2.70;;;22.10;1.00;;;;;;4965587;29;20197;-79
2023/09/05 08:15:06;;;;;;;4.82;3.75;;;22.10;1.00;;;;;;4970818;28;20233;-79
2023/09/05 08:17:34;;;;;;;3.95;3.55;;;22.10;1.00;;;;;;4970852;28;20209;-79
2023/09/05 08:20:04;;;;;;;4.03;3.28;;;22.20;1.00;;;;;;4966875;28;20206;-79
2023/09/05 08:22:32;;;;;;;5.70;3.30;;;22.20;1.00;;;;;;4967130;28;20212;-79
2023/09/05 08:24:59;;;;;;;7.93;4.38;;;22.30;1.00;;;;;;4958138;28;20229;-79
2023/09/05 08:27:29;;;;;;;13.77;5.78;;;22.30;1.00;;;;;;4959006;28;20197;-79
2023/09/05 08:29:57;;;;;;;30.98;10.50;;;22.40;1.00;;;;;;4963388;28;20206;-79
2023/09/05 08:32:24;;;;;;;15.85;6.28;;;22.60;1.00;;;;;;4949297;29;20202;-79
2023/09/05 08:34:52;;;;;;;8.25;3.90;;;22.70;1.00;;;;;;4956544;28;20237;-79
2023/09/05 08:37:20;;;;;;;5.80;3.35;;;22.80;1.00;;;;;;4954561;28;20198;-79
2023/09/05 08:39:48;;;;;;;9.30;6.00;;;22.90;1.00;;;;;;4975252;28;20224;-79
2023/09/05 08:42:16;;;;;;;12.63;6.53;;;23.00;1.00;;;;;;4955736;28;20206;-79
2023/09/05 08:44:45;;;;;;;15.02;7.93;;;23.10;99.90;;;;;;4969485;28;20221;-79
2023/09/05 08:47:12;;;;;;;9.50;6.65;;;23.10;99.90;;;;;;4972355;28;20550;-79
2023/09/05 08:49:40;;;;;;;8.13;4.10;;;23.10;99.90;;;;;;4974676;28;20202;-79
2023/09/05 08:52:08;;;;;;;8.82;6.03;;;23.20;99.90;;;;;;4957393;29;20214;-79
2023/09/05 08:54:37;;;;;;;7.43;3.00;;;23.30;99.90;;;;;;4951287;29;20222;-81
2023/09/05 08:57:06;;;;;;;3.45;2.75;;;23.40;99.90;;;;;;4965099;28;20213;-79
2023/09/05 08:59:34;;;;;;;3.95;2.85;;;23.40;99.90;;;;;;4957794;28;20214;-79
2023/09/05 09:02:02;;;;;;;4.78;2.72;;;23.60;99.90;;;;;;4965347;28;20683;-79
2023/09/05 09:04:31;;;;;;;4.53;3.03;;;23.70;99.90;;;;;;4957133;28;20233;-79
2023/09/05 09:06:59;;;;;;;3.17;2.80;;;23.70;99.90;;;;;;4958585;28;20213;-79
2023/09/05 09:09:34;;;;;;;6.60;3.30;;;23.70;99.90;;;;;;4963165;28;20207;-79
2023/09/05 09:12:04;;;;;;;4.13;3.40;;;23.80;99.90;;;;;;4949967;28;20574;-79
2023/09/05 09:14:31;;;;;;;3.13;2.58;;;23.90;99.90;;;;;;4949816;28;20225;-79
2023/09/05 09:17:01;;;;;;;5.20;3.45;;;23.90;99.90;;;;;;4971272;28;20206;-79
2023/09/05 09:19:29;;;;;;;5.60;3.00;;;24.00;99.90;;;;;;4975997;28;20704;-79
2023/09/05 09:22:01;;;;;;;3.03;2.55;;;24.00;99.90;;;;;;4958581;28;20220;-79
2023/09/05 09:24:33;;;;;;;5.05;2.58;;;24.10;99.90;;;;;;4972665;28;20226;-79
2023/09/05 09:27:05;;;;;;;3.95;2.47;;;24.20;99.90;;;;;;4972702;28;20684;-79
2023/09/05 09:29:33;;;;;;;3.35;2.85;;;24.20;99.90;;;;;;4974862;28;20210;-79
2023/09/05 09:32:03;;;;;;;3.50;3.20;;;24.20;99.90;;;;;;4957093;28;20206;-79
2023/09/05 09:34:31;;;;;;;3.65;2.60;;;24.20;99.90;;;;;;4973536;28;20226;-79
2023/09/05 09:36:59;;;;;;;4.50;2.60;;;24.30;99.90;;;;;;4959308;28;20209;-79
2023/09/05 09:39:28;;;;;;;2.83;2.53;;;24.50;99.90;;;;;;4961708;28;20687;-79
2023/09/05 09:41:59;;;;;;;3.92;2.70;;;24.70;99.90;;;;;;4958867;28;20707;-79
2023/09/05 09:44:30;;;;;;;2.70;2.40;;;24.70;99.90;;;;;;4975613;28;20229;-79
2023/09/05 09:47:00;;;;;;;2.42;2.15;;;24.80;99.90;;;;;;4973203;28;20215;-79
2023/09/05 09:49:29;;;;;;;4.28;2.28;;;24.90;79.00;;;;;;4974147;28;20209;-79
2023/09/05 09:51:58;;;;;;;3.70;1.95;;;25.10;97.40;;;;;;4959172;28;20603;-79
2023/09/05 09:54:31;;;;;;;2.47;1.50;;;25.20;1.00;;;;;;4958902;28;20237;-79
2023/09/05 09:57:00;;;;;;;2.72;1.77;;;25.40;1.00;;;;;;4960109;29;20197;-79
2023/09/05 09:59:35;;;;;;;2.03;1.40;;;25.60;1.00;;;;;;4955871;28;20202;-79
2023/09/05 10:02:05;;;;;;;1.80;1.70;;;25.70;1.00;;;;;;4974092;28;20217;-79
2023/09/05 10:04:34;;;;;;;2.58;1.40;;;25.80;1.00;;;;;;4975019;28;20233;-79
2023/09/05 10:07:06;;;;;;;1.40;1.30;;;25.90;1.00;;;;;;4954292;28;20206;-79
2023/09/05 10:09:37;;;;;;;2.30;1.38;;;25.90;1.00;;;;;;4963389;28;20221;-79
2023/09/05 10:12:07;;;;;;;2.35;1.55;;;25.80;1.00;;;;;;4958318;29;20202;-79
2023/09/05 10:14:38;;;;;;;1.73;1.45;;;26.00;1.00;;;;;;4958889;28;20676;-79
2023/09/05 10:17:06;;;;;;;2.38;1.17;;;26.30;1.00;;;;;;4959570;28;20210;-79
2023/09/05 10:19:35;;;;;;;1.60;1.10;;;26.30;1.00;;;;;;4957576;28;20209;-79
2023/09/05 10:22:04;;;;;;;1.50;1.38;;;26.40;1.00;;;;;;4949588;28;20228;-79
2023/09/05 10:24:34;;;;;;;1.77;1.40;;;26.50;1.00;;;;;;4975220;28;20804;-79
2023/09/05 10:27:03;;;;;;;1.30;1.08;;;26.60;1.00;;;;;;4955824;28;20193;-79
2023/09/05 10:29:43;;;;;;;3.28;1.50;;;26.60;1.00;;;;;;4974718;28;20209;-79
2023/09/05 10:32:11;;;;;;;1.83;1.40;;;26.60;1.00;;;;;;4971047;28;20683;-79
2023/09/05 10:34:58;;;;;;;1.20;1.10;;;26.70;1.00;;;;;;4956890;28;20751;-79
2023/09/05 10:37:40;;;;;;;2.70;1.25;;;26.80;1.00;;;;;;4955285;29;20682;-79
2023/09/05 10:40:09;;;;;;;1.35;1.23;;;26.90;1.00;;;;;;4959079;29;20570;-79
2023/09/05 10:42:42;;;;;;;1.67;1.23;;;26.90;1.00;;;;;;4958311;28;20201;-79
2023/09/05 10:45:30;;;;;;;2.47;1.45;;;27.00;1.00;;;;;;4966890;28;20248;-79
2023/09/05 10:48:01;;;;;;;1.40;1.27;;;27.10;1.00;;;;;;4950765;29;20214;-79
2023/09/05 10:50:28;;;;;;;2.25;0.98;;;27.10;1.00;;;;;;4967523;28;20217;-79
2023/09/05 10:53:21;;;;;;;3.60;1.42;;;27.20;1.00;;;;;;4965811;28;20209;-79
2023/09/05 10:55:50;;;;;;;2.50;1.48;;;27.30;1.00;;;;;;4954249;28;20229;-79
2023/09/05 10:58:45;;;;;;;1.88;1.30;;;27.30;1.00;;;;;;4951776;29;20211;-79
2023/09/05 11:01:48;;;;;;;3.75;1.20;;;27.40;1.00;;;;;;4973218;28;20557;-79
2023/09/05 11:04:26;;;;;;;1.20;1.10;;;27.30;1.00;;;;;;4968186;28;20237;-79
2023/09/05 11:06:55;;;;;;;2.15;1.23;;;27.30;1.00;;;;;;4957944;28;20210;-79
2023/09/05 11:09:24;;;;;;;2.17;0.93;;;27.50;1.00;;;;;;4957178;29;20205;-81
2023/09/05 11:11:53;;;;;;;1.20;1.08;;;27.60;1.00;;;;;;4971865;28;20209;-79
2023/09/05 11:14:32;;;;;;;1.65;1.40;;;27.70;1.00;;;;;;4973884;28;20587;-79
2023/09/05 11:17:01;;;;;;;1.85;1.35;;;27.90;1.00;;;;;;4958942;28;20212;-79
2023/09/05 11:19:35;;;;;;;2.00;1.40;;;27.70;1.00;;;;;;4962817;28;20216;-79
2023/09/05 11:22:11;;;;;;;2.78;1.25;;;27.70;1.00;;;;;;4972614;28;20204;-79
2023/09/05 11:24:45;;;;;;;1.80;1.40;;;27.70;1.00;;;;;;4955468;28;20229;-79
2023/09/05 11:27:13;;;;;;;1.80;1.10;;;28.10;1.00;;;;;;4944126;29;20216;-79
2023/09/05 11:29:42;;;;;;;1.60;1.38;;;28.20;1.00;;;;;;4974968;28;20212;-79
2023/09/05 11:32:12;;;;;;;1.70;1.13;;;28.40;1.00;;;;;;4965816;28;20197;-79
2023/09/05 11:34:42;;;;;;;2.17;1.15;;;28.40;1.00;;;;;;4973074;28;20224;-79
2023/09/05 11:37:10;;;;;;;1.80;0.90;;;28.50;1.00;;;;;;4953529;29;20190;-79
2023/09/05 11:39:37;;;;;;;3.72;1.30;;;28.50;1.00;;;;;;4951524;29;20197;-79
2023/09/05 11:42:05;;;;;;;1.65;1.30;;;28.50;1.00;;;;;;4972391;28;20206;-79
2023/09/05 11:44:38;;;;;;;1.63;1.17;;;28.70;1.00;;;;;;4959874;28;20706;-79
2023/09/05 11:47:07;;;;;;;1.10;1.00;;;28.80;1.00;;;;;;4973543;28;20202;-79
2023/09/05 11:49:36;;;;;;;1.67;1.10;;;28.90;1.00;;;;;;4975282;28;20213;-79
2023/09/05 11:52:05;;;;;;;1.52;1.30;;;29.10;1.00;;;;;;4961299;28;20225;-79
2023/09/05 11:54:33;;;;;;;1.33;1.02;;;29.00;1.00;;;;;;4977284;28;20221;-80
2023/09/05 11:57:02;;;;;;;2.40;1.30;;;28.90;1.00;;;;;;4950627;28;20218;-79
2023/09/05 11:59:30;;;;;;;1.75;1.23;;;29.00;1.00;;;;;;4955781;28;20556;-79
2023/09/05 12:01:57;;;;;;;1.10;0.88;;;28.90;1.00;;;;;;4954454;28;20209;-79
2023/09/05 12:04:25;;;;;;;1.65;1.00;;;28.90;1.00;;;;;;4961043;28;20236;-79
2023/09/05 12:06:53;;;;;;;1.73;0.90;;;28.90;1.00;;;;;;4962328;28;20201;-79
2023/09/05 12:09:21;;;;;;;1.17;1.00;;;29.00;1.00;;;;;;4970613;28;20206;-79
2023/09/05 12:11:50;;;;;;;1.30;1.20;;;29.10;1.00;;;;;;4974282;28;20197;-79
2023/09/05 12:14:20;;;;;;;0.80;0.77;;;29.30;1.00;;;;;;4969979;28;20696;-79
2023/09/05 12:16:48;;;;;;;2.63;1.20;;;29.40;1.00;;;;;;4946573;28;20225;-79
2023/09/05 12:19:17;;;;;;;1.77;1.20;;;29.40;1.00;;;;;;4970093;28;20202;-79
2023/09/05 12:21:46;;;;;;;1.10;1.00;;;29.30;1.00;;;;;;4970207;28;20205;-79
2023/09/05 12:24:23;;;;;;;1.20;1.08;;;29.40;1.00;;;;;;4964351;28;20229;-79
2023/09/05 12:26:52;;;;;;;1.00;0.90;;;29.50;1.00;;;;;;4979191;28;20686;-79
2023/09/05 12:29:24;;;;;;;0.77;0.75;;;29.60;1.00;;;;;;4958908;28;20212;-79
2023/09/05 12:31:53;;;;;;;1.08;0.93;;;29.80;1.00;;;;;;4955053;28;20198;-79
2023/09/05 12:34:21;;;;;;;1.05;0.95;;;29.80;1.00;;;;;;4969927;28;20229;-79
2023/09/05 12:36:50;;;;;;;2.50;1.02;;;30.00;1.00;;;;;;4952227;28;20221;-79
2023/09/05 12:39:17;;;;;;;1.80;1.20;;;30.10;1.00;;;;;;4952839;28;20194;-79
2023/09/05 12:41:47;;;;;;;1.10;0.90;;;30.30;1.00;;;;;;4970476;28;20559;-79
2023/09/05 12:44:15;;;;;;;1.27;1.00;;;30.70;1.00;;;;;;4970063;28;20222;-79
2023/09/05 12:46:42;;;;;;;2.03;0.95;;;30.50;1.00;;;;;;4957165;28;20204;-79
2023/09/05 12:49:12;;;;;;;1.02;0.90;;;30.60;1.00;;;;;;4954350;28;20194;-79
2023/09/05 12:51:40;;;;;;;1.55;0.82;;;30.90;1.00;;;;;;4963791;28;20206;-79
2023/09/05 12:54:08;;;;;;;1.50;0.70;;;30.80;1.00;;;;;;4952594;28;20220;-79
2023/09/05 12:56:35;;;;;;;1.20;0.80;;;31.10;1.00;;;;;;4973237;28;20249;-79
2023/09/05 12:59:05;;;;;;;1.13;0.90;;;30.70;1.00;;;;;;4962820;28;20206;-79
2023/09/05 13:01:33;;;;;;;2.75;1.33;;;30.70;1.00;;;;;;4952610;29;20194;-79
2023/09/05 13:04:02;;;;;;;0.82;0.80;;;30.90;1.00;;;;;;4954982;28;20229;-79